Time;durP1;ratioP1;P1;durP2;ratioP2;P2;SDS_P1;SDS_P2;PMS_P1;PMS_P2;Temp;Humidity;BMP_temperature;BMP_pressure;BME280_temperature;BME280_humidity;BME280_pressure;Samples;Min_cycle;Max_cycle;Signal;HPM_P1;HPM_P2
2020/12/01 00:01:34;;;;;;;67.03;35.92;;;;;;;;;;5076427;28;20211;-68
2020/12/01 00:04:01;;;;;;;71.38;37.63;;;;;;;;;;5076168;28;20188;-68
2020/12/01 00:06:30;;;;;;;68.90;36.22;;;;;;;;;;5076253;28;20267;-68
2020/12/01 00:08:59;;;;;;;67.00;34.28;;;;;;;;;;5076102;28;20215;-68
2020/12/01 00:11:27;;;;;;;64.32;35.03;;;;;;;;;;5075950;28;20223;-68
2020/12/01 00:13:54;;;;;;;62.28;36.10;;;;;;;;;;5075740;28;20220;-68
2020/12/01 00:16:20;;;;;;;74.50;36.47;;;;;;;;;;5075848;28;20188;-68
2020/12/01 00:18:47;;;;;;;63.17;34.40;;;;;;;;;;5076239;28;20196;-68
2020/12/01 00:21:18;;;;;;;61.95;33.97;;;;;;;;;;5075775;28;20204;-68
2020/12/01 00:23:48;;;;;;;68.53;35.30;;;;;;;;;;5075782;28;20190;-68
2020/12/01 00:26:17;;;;;;;59.92;31.90;;;;;;;;;;5075926;28;20215;-68
2020/12/01 00:28:44;;;;;;;67.68;34.70;;;;;;;;;;5075657;28;20235;-68
2020/12/01 00:31:11;;;;;;;69.05;36.85;;;;;;;;;;5075652;28;20176;-68
2020/12/01 00:33:38;;;;;;;63.60;35.40;;;;;;;;;;5075513;28;20212;-68
2020/12/01 00:36:05;;;;;;;64.75;34.95;;;;;;;;;;5075677;28;20536;-68
2020/12/01 00:38:32;;;;;;;60.47;32.63;;;;;;;;;;5075499;28;20203;-67
2020/12/01 00:40:58;;;;;;;55.25;32.03;;;;;;;;;;5075763;28;20198;-67
2020/12/01 00:43:25;;;;;;;62.60;35.75;;;;;;;;;;5075170;28;20188;-67
2020/12/01 00:45:52;;;;;;;61.28;33.45;;;;;;;;;;5073893;28;20210;-68
2020/12/01 00:48:19;;;;;;;68.47;35.08;;;;;;;;;;5074765;28;20219;-68
2020/12/01 00:50:45;;;;;;;65.07;33.60;;;;;;;;;;5075271;28;20192;-67
2020/12/01 00:53:13;;;;;;;66.38;36.55;;;;;;;;;;5075013;28;20200;-67
2020/12/01 00:55:39;;;;;;;68.05;35.30;;;;;;;;;;5075413;28;20250;-67
2020/12/01 00:58:06;;;;;;;69.82;37.30;;;;;;;;;;5075305;28;20264;-67
2020/12/01 01:00:32;;;;;;;65.93;34.58;;;;;;;;;;5074203;28;20208;-68
2020/12/01 01:02:59;;;;;;;64.03;35.78;;;;;;;;;;5075212;28;20617;-67
2020/12/01 01:05:26;;;;;;;61.63;33.17;;;;;;;;;;5074906;28;20188;-67
2020/12/01 01:07:53;;;;;;;62.40;36.03;;;;;;;;;;5074850;28;20274;-67
2020/12/01 01:10:25;;;;;;;66.22;36.25;;;;;;;;;;5074799;28;20263;-68
2020/12/01 01:12:52;;;;;;;70.22;37.75;;;;;;;;;;5075187;28;20191;-67
2020/12/01 01:15:23;;;;;;;65.93;34.35;;;;;;;;;;5074571;28;20220;-67
2020/12/01 01:17:49;;;;;;;64.88;35.30;;;;;;;;;;5074750;28;20195;-68
2020/12/01 01:20:16;;;;;;;67.38;34.22;;;;;;;;;;5075579;28;20196;-67
2020/12/01 01:22:45;;;;;;;66.45;34.65;;;;;;;;;;5074458;28;20196;-67
2020/12/01 01:25:13;;;;;;;61.67;33.65;;;;;;;;;;5075305;28;20245;-67
2020/12/01 01:27:39;;;;;;;67.03;34.33;;;;;;;;;;5073577;28;20208;-67
2020/12/01 01:30:07;;;;;;;60.55;32.58;;;;;;;;;;5074232;28;20232;-67
2020/12/01 01:32:36;;;;;;;58.97;33.08;;;;;;;;;;5074408;28;20295;-67
2020/12/01 01:35:03;;;;;;;62.47;34.58;;;;;;;;;;5074507;28;20232;-67
2020/12/01 01:37:29;;;;;;;67.20;37.40;;;;;;;;;;5074662;28;20203;-67
2020/12/01 01:39:56;;;;;;;61.72;32.45;;;;;;;;;;5074583;28;20662;-67
2020/12/01 01:42:23;;;;;;;63.10;35.03;;;;;;;;;;5074585;28;20279;-67
2020/12/01 01:44:49;;;;;;;69.35;34.65;;;;;;;;;;5074610;28;20202;-67
2020/12/01 01:47:24;;;;;;;65.63;33.65;;;;;;;;;;5073612;28;20191;-67
2020/12/01 01:50:02;;;;;;;67.20;34.42;;;;;;;;;;5074555;28;20607;-67
2020/12/01 01:52:31;;;;;;;59.42;33.63;;;;;;;;;;5074767;28;20200;-68
2020/12/01 01:54:59;;;;;;;70.88;39.83;;;;;;;;;;5073133;28;20230;-67
2020/12/01 01:57:27;;;;;;;69.65;34.00;;;;;;;;;;5074018;28;20268;-67
2020/12/01 01:59:53;;;;;;;66.13;36.20;;;;;;;;;;5073120;28;20655;-67
2020/12/01 02:02:20;;;;;;;63.92;33.38;;;;;;;;;;5073162;28;20188;-67
2020/12/01 02:04:46;;;;;;;76.82;36.90;;;;;;;;;;5074119;28;20207;-67
2020/12/01 02:07:13;;;;;;;68.28;35.97;;;;;;;;;;5074073;28;20226;-67
2020/12/01 02:09:53;;;;;;;71.22;34.63;;;;;;;;;;5073844;28;20204;-67
2020/12/01 02:12:25;;;;;;;68.00;36.05;;;;;;;;;;5074016;28;20184;-67
2020/12/01 02:14:56;;;;;;;72.50;36.67;;;;;;;;;;5074231;28;20230;-67
2020/12/01 02:17:36;;;;;;;72.47;36.50;;;;;;;;;;5073898;28;20198;-67
2020/12/01 02:20:10;;;;;;;68.30;35.67;;;;;;;;;;5073045;28;20536;-67
2020/12/01 02:22:37;;;;;;;65.78;36.53;;;;;;;;;;5074281;28;20270;-67
2020/12/01 02:25:04;;;;;;;82.38;38.63;;;;;;;;;;5074102;28;20203;-67
2020/12/01 02:27:31;;;;;;;67.30;35.35;;;;;;;;;;5073730;28;20210;-67
2020/12/01 02:29:59;;;;;;;62.45;33.00;;;;;;;;;;5073774;28;20220;-67
2020/12/01 02:32:30;;;;;;;68.80;36.15;;;;;;;;;;5073768;28;20195;-67
2020/12/01 02:35:00;;;;;;;78.10;36.42;;;;;;;;;;5073876;28;20207;-67
2020/12/01 02:37:28;;;;;;;71.70;34.80;;;;;;;;;;5073814;28;20196;-67
2020/12/01 02:40:00;;;;;;;73.85;38.60;;;;;;;;;;5073873;28;20183;-67
2020/12/01 02:42:27;;;;;;;73.32;36.58;;;;;;;;;;5055869;28;20208;-67
2020/12/01 02:44:55;;;;;;;65.63;35.92;;;;;;;;;;5073886;28;20198;-67
2020/12/01 02:47:22;;;;;;;71.80;34.75;;;;;;;;;;5073727;28;20552;-67
2020/12/01 02:49:49;;;;;;;75.38;38.42;;;;;;;;;;5072124;28;20217;-67
2020/12/01 02:52:20;;;;;;;61.88;32.40;;;;;;;;;;5073528;28;20715;-67
2020/12/01 02:54:47;;;;;;;62.97;34.90;;;;;;;;;;5073932;28;20280;-67
2020/12/01 02:57:14;;;;;;;67.15;34.50;;;;;;;;;;5073651;28;20692;-67
2020/12/01 02:59:42;;;;;;;66.72;36.42;;;;;;;;;;5073752;28;20544;-67
2020/12/01 03:02:09;;;;;;;69.95;35.90;;;;;;;;;;5071935;28;20204;-67
2020/12/01 03:04:36;;;;;;;78.70;37.97;;;;;;;;;;5072808;28;20303;-67
2020/12/01 03:07:02;;;;;;;66.93;37.67;;;;;;;;;;5074188;28;20211;-67
2020/12/01 03:09:29;;;;;;;71.22;35.63;;;;;;;;;;5075732;28;20250;-67
2020/12/01 03:11:56;;;;;;;77.13;36.17;;;;;;;;;;5076920;28;20271;-68
2020/12/01 03:14:24;;;;;;;76.82;39.28;;;;;;;;;;5076381;28;20222;-68
2020/12/01 03:16:50;;;;;;;76.72;35.08;;;;;;;;;;5077249;28;20200;-68
2020/12/01 03:19:19;;;;;;;73.20;37.70;;;;;;;;;;5075852;28;20203;-68
2020/12/01 03:21:45;;;;;;;73.85;37.92;;;;;;;;;;5077122;28;20196;-68
2020/12/01 03:24:12;;;;;;;85.22;39.20;;;;;;;;;;5077317;28;20274;-68
2020/12/01 03:26:39;;;;;;;77.75;36.10;;;;;;;;;;5077274;28;20211;-68
2020/12/01 03:29:08;;;;;;;84.95;40.45;;;;;;;;;;5075847;28;20227;-68
2020/12/01 03:31:34;;;;;;;85.15;41.75;;;;;;;;;;5077794;28;20242;-68
2020/12/01 03:34:01;;;;;;;75.63;39.30;;;;;;;;;;5077053;28;20582;-68
2020/12/01 03:36:27;;;;;;;89.55;45.33;;;;;;;;;;5077222;28;20226;-68
2020/12/01 03:38:55;;;;;;;101.00;51.22;;;;;;;;;;5076745;28;20200;-68
2020/12/01 03:41:24;;;;;;;84.22;42.25;;;;;;;;;;5076588;28;20226;-68
2020/12/01 03:43:51;;;;;;;84.82;42.90;;;;;;;;;;5077019;28;20192;-68
2020/12/01 03:46:18;;;;;;;79.70;40.63;;;;;;;;;;5076545;28;20188;-68
2020/12/01 03:48:45;;;;;;;73.88;37.90;;;;;;;;;;5075582;28;20583;-68
2020/12/01 03:51:11;;;;;;;78.72;39.47;;;;;;;;;;5076506;28;20199;-68
2020/12/01 03:53:38;;;;;;;81.00;39.25;;;;;;;;;;5076381;28;20665;-68
2020/12/01 03:56:05;;;;;;;80.20;38.83;;;;;;;;;;5076421;28;20192;-68
2020/12/01 03:58:31;;;;;;;76.75;38.15;;;;;;;;;;5076955;28;20184;-68
2020/12/01 04:00:58;;;;;;;71.82;34.95;;;;;;;;;;5069352;28;20543;-68
2020/12/01 04:03:25;;;;;;;68.32;35.65;;;;;;;;;;5068882;28;20204;-68
2020/12/01 04:05:51;;;;;;;72.38;35.95;;;;;;;;;;5075471;28;20265;-68
2020/12/01 04:08:18;;;;;;;67.45;36.45;;;;;;;;;;5075896;28;20667;-68
2020/12/01 04:10:45;;;;;;;70.18;36.13;;;;;;;;;;5075462;28;20537;-68
2020/12/01 04:13:12;;;;;;;71.43;35.50;;;;;;;;;;5075517;28;20198;-68
2020/12/01 04:15:39;;;;;;;61.55;31.35;;;;;;;;;;5075164;28;20228;-68
2020/12/01 04:18:05;;;;;;;71.18;34.70;;;;;;;;;;5075787;28;20184;-67
2020/12/01 04:20:32;;;;;;;66.38;34.00;;;;;;;;;;5076266;28;20665;-67
2020/12/01 04:23:00;;;;;;;61.92;31.45;;;;;;;;;;5076084;28;20196;-67
2020/12/01 04:25:29;;;;;;;62.65;30.90;;;;;;;;;;5076594;28;20192;-67
2020/12/01 04:27:56;;;;;;;62.58;33.47;;;;;;;;;;5076114;28;20191;-67
2020/12/01 04:30:24;;;;;;;59.45;30.67;;;;;;;;;;5075795;28;20231;-67
2020/12/01 04:32:54;;;;;;;60.78;32.70;;;;;;;;;;5075772;28;20192;-67
2020/12/01 04:35:25;;;;;;;67.88;34.17;;;;;;;;;;5075962;28;20243;-67
2020/12/01 04:37:54;;;;;;;55.88;28.48;;;;;;;;;;5075738;28;20234;-68
2020/12/01 04:40:22;;;;;;;66.15;32.90;;;;;;;;;;5075994;28;20558;-67
2020/12/01 04:42:51;;;;;;;63.50;30.40;;;;;;;;;;5076066;28;20556;-67
2020/12/01 04:45:19;;;;;;;68.18;33.92;;;;;;;;;;5076185;28;20537;-67
2020/12/01 04:47:53;;;;;;;63.08;31.50;;;;;;;;;;5075807;28;20596;-67
2020/12/01 04:50:24;;;;;;;64.88;30.13;;;;;;;;;;5075836;28;20595;-68
2020/12/01 04:53:02;;;;;;;58.47;31.17;;;;;;;;;;5077208;28;20180;-68
2020/12/01 04:55:47;;;;;;;69.20;33.97;;;;;;;;;;5076001;28;20203;-68
2020/12/01 04:58:33;;;;;;;64.03;30.58;;;;;;;;;;5075343;28;20200;-68
2020/12/01 05:01:16;;;;;;;59.88;31.60;;;;;;;;;;5075286;28;20196;-68
2020/12/01 05:03:53;;;;;;;66.63;32.92;;;;;;;;;;5075249;28;20540;-68
2020/12/01 05:06:57;;;;;;;65.72;33.33;;;;;;;;;;5075363;28;20176;-68
2020/12/01 05:09:38;;;;;;;60.40;29.58;;;;;;;;;;5074293;28;20203;-68
2020/12/01 05:12:08;;;;;;;71.68;33.13;;;;;;;;;;5075398;28;20214;-68
2020/12/01 05:14:51;;;;;;;60.50;32.53;;;;;;;;;;5075371;28;20227;-68
2020/12/01 05:17:21;;;;;;;60.55;29.33;;;;;;;;;;5075191;28;20196;-68
2020/12/01 05:19:49;;;;;;;63.13;37.65;;;;;;;;;;5075289;28;20618;-68
2020/12/01 05:22:17;;;;;;;69.32;33.13;;;;;;;;;;5075676;28;20550;-68
2020/12/01 05:24:48;;;;;;;68.05;33.80;;;;;;;;;;5075064;28;20642;-68
2020/12/01 05:27:26;;;;;;;71.93;35.33;;;;;;;;;;5074965;28;20211;-68
2020/12/01 05:29:56;;;;;;;64.13;32.60;;;;;;;;;;5073187;28;20236;-68
2020/12/01 05:32:30;;;;;;;66.18;32.65;;;;;;;;;;5074600;28;20267;-68
2020/12/01 05:35:08;;;;;;;64.60;30.45;;;;;;;;;;5075073;28;20266;-67
2020/12/01 05:37:38;;;;;;;72.00;34.85;;;;;;;;;;5075111;28;20251;-67
2020/12/01 05:40:12;;;;;;;64.47;33.38;;;;;;;;;;5073876;28;20192;-67
2020/12/01 05:42:43;;;;;;;66.00;34.80;;;;;;;;;;5075234;28;20199;-67
2020/12/01 05:45:16;;;;;;;72.78;33.03;;;;;;;;;;5074503;28;20211;-67
2020/12/01 05:47:46;;;;;;;72.03;33.58;;;;;;;;;;5073490;28;20172;-67
2020/12/01 05:50:21;;;;;;;72.65;33.35;;;;;;;;;;5074626;28;20195;-67
2020/12/01 05:52:57;;;;;;;73.75;34.33;;;;;;;;;;5074675;28;20590;-67
2020/12/01 05:55:25;;;;;;;75.10;34.80;;;;;;;;;;5074687;28;20221;-66
2020/12/01 05:58:02;;;;;;;68.28;34.75;;;;;;;;;;5074407;28;20588;-67
2020/12/01 06:00:31;;;;;;;69.80;32.50;;;;;;;;;;5074282;28;20184;-67
2020/12/01 06:03:16;;;;;;;68.07;32.13;;;;;;;;;;5074673;28;20188;-67
2020/12/01 06:05:44;;;;;;;63.58;33.75;;;;;;;;;;5074305;28;20208;-67
2020/12/01 06:08:24;;;;;;;70.07;31.77;;;;;;;;;;5074454;28;20202;-67
2020/12/01 06:11:11;;;;;;;61.97;31.65;;;;;;;;;;5074378;28;20192;-67
2020/12/01 06:13:47;;;;;;;60.15;31.00;;;;;;;;;;5074331;28;20555;-67
2020/12/01 06:16:19;;;;;;;62.90;29.63;;;;;;;;;;5072634;28;20227;-67
2020/12/01 06:18:56;;;;;;;70.63;31.92;;;;;;;;;;5074374;28;20180;-67
2020/12/01 06:21:41;;;;;;;60.33;33.03;;;;;;;;;;5074160;28;20191;-67
2020/12/01 06:24:22;;;;;;;64.82;32.58;;;;;;;;;;5074060;28;20188;-67
2020/12/01 06:27:02;;;;;;;59.00;31.33;;;;;;;;;;5074222;28;20561;-67
2020/12/01 06:29:44;;;;;;;60.70;30.45;;;;;;;;;;5073918;28;20223;-67
2020/12/01 06:32:29;;;;;;;59.28;29.35;;;;;;;;;;5074079;28;20184;-67
2020/12/01 06:35:04;;;;;;;60.97;31.70;;;;;;;;;;5073955;28;20204;-66
2020/12/01 06:37:33;;;;;;;60.50;30.13;;;;;;;;;;5073825;28;20684;-68
2020/12/01 06:40:25;;;;;;;57.97;30.38;;;;;;;;;;5073911;28;20191;-65
2020/12/01 06:42:54;;;;;;;62.13;30.13;;;;;;;;;;5073231;28;20176;-67
2020/12/01 06:45:27;;;;;;;61.75;30.35;;;;;;;;;;5073648;28;20196;-67
2020/12/01 06:48:00;;;;;;;60.90;30.58;;;;;;;;;;5073201;28;20219;-66
2020/12/01 06:50:27;;;;;;;59.45;30.95;;;;;;;;;;5073246;28;20203;-66
2020/12/01 06:52:55;;;;;;;62.35;29.75;;;;;;;;;;5073281;28;20184;-67
2020/12/01 06:55:41;;;;;;;63.70;30.30;;;;;;;;;;5073230;28;20285;-65
2020/12/01 06:58:17;;;;;;;63.03;33.28;;;;;;;;;;5073484;28;20192;-65
2020/12/01 07:00:44;;;;;;;73.07;32.45;;;;;;;;;;5073216;28;20191;-66
2020/12/01 07:03:22;;;;;;;62.00;30.63;;;;;;;;;;5073394;28;20185;-66
2020/12/01 07:05:49;;;;;;;65.40;32.15;;;;;;;;;;5073686;28;20192;-66
2020/12/01 07:08:23;;;;;;;76.30;34.90;;;;;;;;;;5073181;28;20215;-66
2020/12/01 07:11:00;;;;;;;71.20;35.88;;;;;;;;;;5073794;28;20538;-66
2020/12/01 07:13:40;;;;;;;69.05;33.33;;;;;;;;;;5073333;28;20229;-67
2020/12/01 07:16:08;;;;;;;62.72;29.80;;;;;;;;;;5073713;28;20202;-65
2020/12/01 07:18:36;;;;;;;74.53;36.05;;;;;;;;;;5073130;28;20195;-66
2020/12/01 07:21:13;;;;;;;68.63;32.65;;;;;;;;;;5073322;28;20551;-66
2020/12/01 07:23:48;;;;;;;73.10;34.65;;;;;;;;;;5072984;28;20604;-66
2020/12/01 07:26:21;;;;;;;65.72;33.55;;;;;;;;;;5073117;28;20649;-67
2020/12/01 07:28:47;;;;;;;67.68;33.03;;;;;;;;;;5073201;28;20230;-66
2020/12/01 07:31:23;;;;;;;73.07;33.95;;;;;;;;;;5073192;28;20181;-66
2020/12/01 07:33:55;;;;;;;69.80;32.35;;;;;;;;;;5072977;28;20176;-66
2020/12/01 07:36:27;;;;;;;83.22;36.55;;;;;;;;;;5072834;28;20246;-66
2020/12/01 07:39:09;;;;;;;76.88;34.55;;;;;;;;;;5073852;28;20188;-66
2020/12/01 07:41:44;;;;;;;65.00;30.27;;;;;;;;;;5073630;28;20188;-66
2020/12/01 07:44:14;;;;;;;65.75;32.55;;;;;;;;;;5073524;28;20587;-66
2020/12/01 07:49:18;;;;;;;70.80;32.28;;;;;;;;;;5073798;28;20689;-66
2020/12/01 07:51:45;;;;;;;60.60;31.40;;;;;;;;;;5073321;28;20219;-66
2020/12/01 07:54:17;;;;;;;65.55;33.03;;;;;;;;;;5074658;28;20530;-66
2020/12/01 07:56:44;;;;;;;62.58;31.10;;;;;;;;;;5076651;28;20184;-66
2020/12/01 07:59:12;;;;;;;63.78;33.20;;;;;;;;;;5076289;28;20191;-66
2020/12/01 08:01:40;;;;;;;56.75;29.33;;;;;;;;;;5076376;28;20184;-66
2020/12/01 08:04:10;;;;;;;65.80;31.75;;;;;;;;;;5076391;28;20614;-66
2020/12/01 08:06:37;;;;;;;62.22;28.85;;;;;;;;;;5076678;28;20180;-66
2020/12/01 08:09:16;;;;;;;54.70;29.27;;;;;;;;;;5076273;28;20216;-66
2020/12/01 08:11:43;;;;;;;59.80;28.30;;;;;;;;;;5076230;28;20690;-66
2020/12/01 08:14:10;;;;;;;59.17;28.45;;;;;;;;;;5076465;28;20184;-66
2020/12/01 08:16:39;;;;;;;58.22;29.98;;;;;;;;;;5076173;28;20218;-66
2020/12/01 08:19:06;;;;;;;53.38;28.65;;;;;;;;;;5076256;28;20208;-66
2020/12/01 08:21:35;;;;;;;56.33;27.90;;;;;;;;;;5076057;28;20188;-66
2020/12/01 08:24:05;;;;;;;55.13;26.17;;;;;;;;;;5076136;28;20204;-66
2020/12/01 08:26:33;;;;;;;55.00;27.50;;;;;;;;;;5076318;28;20223;-66
2020/12/01 08:29:22;;;;;;;57.85;28.40;;;;;;;;;;5076004;28;20230;-66
2020/12/01 08:31:59;;;;;;;50.88;26.48;;;;;;;;;;5075699;28;20200;-66
2020/12/01 08:34:39;;;;;;;51.40;26.02;;;;;;;;;;5074317;28;20221;-66
2020/12/01 08:37:26;;;;;;;59.05;28.48;;;;;;;;;;5076141;28;20208;-65
2020/12/01 08:40:06;;;;;;;54.25;25.05;;;;;;;;;;5075629;28;20184;-67
2020/12/01 08:42:53;;;;;;;49.67;25.33;;;;;;;;;;5075738;28;20192;-67
2020/12/01 08:45:20;;;;;;;61.88;26.77;;;;;;;;;;5075579;28;20219;-67
2020/12/01 08:47:47;;;;;;;52.13;27.33;;;;;;;;;;5075589;28;20314;-67
2020/12/01 08:50:21;;;;;;;59.88;28.17;;;;;;;;;;5075450;28;20200;-67
2020/12/01 08:52:50;;;;;;;59.30;26.70;;;;;;;;;;5075165;28;20643;-67
2020/12/01 08:55:27;;;;;;;55.63;27.63;;;;;;;;;;5075566;28;20223;-66
2020/12/01 08:58:16;;;;;;;55.08;27.10;;;;;;;;;;5075384;28;20175;-67
2020/12/01 09:00:55;;;;;;;54.88;27.98;;;;;;;;;;5074709;28;20286;-67
2020/12/01 09:03:22;;;;;;;56.67;28.73;;;;;;;;;;5074970;28;20191;-67
2020/12/01 09:05:49;;;;;;;56.70;28.05;;;;;;;;;;5075049;28;20212;-66
2020/12/01 09:08:49;;;;;;;55.85;27.20;;;;;;;;;;5075717;28;20653;-64
2020/12/01 09:11:43;;;;;;;61.50;28.83;;;;;;;;;;5075136;28;20204;-63
2020/12/01 09:19:33;;;;;;;47.35;26.10;;;;;;;;;;5075297;28;20196;-64
2020/12/01 09:22:11;;;;;;;52.45;26.92;;;;;;;;;;5075050;28;20200;-64
2020/12/01 09:24:38;;;;;;;52.85;27.40;;;;;;;;;;5075581;28;20183;-64
2020/12/01 09:27:10;;;;;;;47.78;25.60;;;;;;;;;;5075148;28;20192;-64
2020/12/01 09:29:37;;;;;;;49.13;25.88;;;;;;;;;;5075189;28;20687;-64
2020/12/01 09:32:06;;;;;;;46.33;24.98;;;;;;;;;;5075368;28;20212;-64
2020/12/01 09:34:34;;;;;;;46.38;25.08;;;;;;;;;;5075136;28;20204;-64
2020/12/01 09:37:02;;;;;;;52.20;25.80;;;;;;;;;;5074955;28;20211;-64
2020/12/01 09:39:29;;;;;;;41.97;25.63;;;;;;;;;;5074847;28;20237;-64
2020/12/01 09:42:06;;;;;;;47.63;24.95;;;;;;;;;;5074756;28;20192;-64
2020/12/01 09:45:23;;;;;;;42.85;24.08;;;;;;;;;;5075057;28;20195;-64
2020/12/01 09:47:36;;;;;;;45.75;24.48;;;;;;;;;;5074156;28;20195;-64
2020/12/01 09:50:04;;;;;;;50.88;26.67;;;;;;;;;;5075117;28;20183;-64
2020/12/01 09:52:42;;;;;;;43.97;25.17;;;;;;;;;;5074793;28;20531;-64
2020/12/01 09:55:20;;;;;;;48.53;26.40;;;;;;;;;;5074706;28;20228;-64
2020/12/01 10:09:06;;;;;;;43.15;24.92;;;;;;;;;;5071994;28;20293;-64
2020/12/01 10:36:22;;;;;;;50.03;26.95;;;;;;;;;;5074011;28;20202;-64
2020/12/01 10:38:48;;;;;;;36.65;23.50;;;;;;;;;;5073968;28;20199;-64
2020/12/01 10:41:15;;;;;;;48.28;26.40;;;;;;;;;;5072407;28;20218;-64
2020/12/01 10:43:42;;;;;;;43.00;25.40;;;;;;;;;;5073806;28;20199;-64
2020/12/01 10:46:10;;;;;;;40.03;24.92;;;;;;;;;;5074184;28;20191;-64
2020/12/01 10:48:37;;;;;;;44.80;26.30;;;;;;;;;;5074598;28;20254;-63
2020/12/01 10:51:04;;;;;;;38.28;24.33;;;;;;;;;;5073654;28;20198;-64
2020/12/01 10:53:30;;;;;;;51.65;26.00;;;;;;;;;;5073741;28;20200;-64
2020/12/01 10:55:57;;;;;;;45.83;25.95;;;;;;;;;;5073774;28;20219;-64
2020/12/01 10:58:24;;;;;;;50.83;28.23;;;;;;;;;;5073653;28;20199;-64
2020/12/01 11:00:51;;;;;;;45.28;25.05;;;;;;;;;;5072520;28;20282;-63
2020/12/01 11:03:21;;;;;;;52.85;28.42;;;;;;;;;;5074667;28;20268;-67
2020/12/01 11:05:48;;;;;;;49.47;28.33;;;;;;;;;;5074714;28;20678;-68
2020/12/01 11:08:14;;;;;;;47.75;26.15;;;;;;;;;;5062730;28;20188;-66
2020/12/01 11:10:41;;;;;;;46.85;27.75;;;;;;;;;;5065446;28;20198;-66
2020/12/01 11:13:09;;;;;;;47.20;25.05;;;;;;;;;;5074457;28;20266;-67
2020/12/01 11:15:36;;;;;;;44.97;25.33;;;;;;;;;;5073574;28;20616;-66
2020/12/01 11:18:03;;;;;;;41.55;25.83;;;;;;;;;;5073868;28;20197;-67
2020/12/01 11:20:31;;;;;;;48.42;27.13;;;;;;;;;;5073765;28;20245;-66
2020/12/01 11:22:59;;;;;;;48.38;26.17;;;;;;;;;;5073259;28;20196;-66
2020/12/01 11:25:26;;;;;;;50.47;28.15;;;;;;;;;;5073201;28;20217;-67
2020/12/01 11:27:53;;;;;;;46.63;26.08;;;;;;;;;;5054277;28;20196;-67
2020/12/01 11:30:21;;;;;;;50.47;25.80;;;;;;;;;;5071444;28;20234;-66
2020/12/01 11:32:48;;;;;;;52.90;27.27;;;;;;;;;;5062300;28;20200;-66
2020/12/01 11:35:17;;;;;;;48.83;27.15;;;;;;;;;;5076607;28;20220;-67
2020/12/01 11:37:43;;;;;;;49.25;27.08;;;;;;;;;;5076590;28;20227;-67
2020/12/01 11:40:10;;;;;;;49.67;27.88;;;;;;;;;;5070798;28;20246;-67
2020/12/01 11:42:37;;;;;;;45.42;26.00;;;;;;;;;;5066952;28;20203;-67
2020/12/01 11:45:05;;;;;;;40.42;25.00;;;;;;;;;;5076629;28;20211;-66
2020/12/01 11:47:31;;;;;;;44.60;24.60;;;;;;;;;;5076233;28;20192;-67
2020/12/01 11:50:00;;;;;;;47.67;26.05;;;;;;;;;;5075146;28;20580;-67
2020/12/01 11:52:26;;;;;;;48.95;25.10;;;;;;;;;;5075012;28;20200;-67
2020/12/01 11:54:55;;;;;;;48.92;27.55;;;;;;;;;;5076037;28;20649;-67
2020/12/01 11:57:21;;;;;;;48.53;27.27;;;;;;;;;;5069443;28;20561;-67
2020/12/01 11:59:48;;;;;;;43.80;25.77;;;;;;;;;;5068893;28;20641;-68
2020/12/01 12:02:16;;;;;;;43.35;24.15;;;;;;;;;;5075947;28;20246;-67
2020/12/01 12:04:43;;;;;;;41.80;26.52;;;;;;;;;;5076140;28;20719;-67
2020/12/01 12:07:11;;;;;;;52.15;26.70;;;;;;;;;;5075968;28;20566;-67
2020/12/01 12:09:37;;;;;;;46.05;25.65;;;;;;;;;;5075986;28;20575;-67
2020/12/01 12:12:06;;;;;;;46.13;25.60;;;;;;;;;;5076001;28;20188;-67
2020/12/01 12:14:32;;;;;;;43.58;25.75;;;;;;;;;;5074808;28;20226;-66
2020/12/01 12:16:59;;;;;;;45.20;27.23;;;;;;;;;;5074607;28;20611;-66
2020/12/01 12:19:25;;;;;;;49.97;26.80;;;;;;;;;;5075993;28;20204;-66
2020/12/01 12:21:52;;;;;;;48.03;27.35;;;;;;;;;;5076209;28;20199;-67
2020/12/01 12:24:19;;;;;;;47.10;25.73;;;;;;;;;;5074671;28;20188;-67
2020/12/01 12:26:45;;;;;;;48.17;26.25;;;;;;;;;;5076046;28;20192;-67
2020/12/01 12:29:12;;;;;;;43.53;25.95;;;;;;;;;;5075578;28;20230;-67
2020/12/01 12:31:47;;;;;;;48.50;28.10;;;;;;;;;;5076589;28;20183;-67
2020/12/01 12:34:14;;;;;;;51.13;28.63;;;;;;;;;;5075966;28;20206;-67
2020/12/01 12:36:40;;;;;;;46.83;25.15;;;;;;;;;;5057972;28;20239;-67
2020/12/01 12:39:07;;;;;;;53.50;27.70;;;;;;;;;;5075414;28;20350;-67
2020/12/01 12:41:33;;;;;;;51.60;28.35;;;;;;;;;;5075681;28;20203;-67
2020/12/01 12:44:03;;;;;;;42.40;25.40;;;;;;;;;;5075973;28;20585;-67
2020/12/01 12:46:31;;;;;;;47.47;27.02;;;;;;;;;;5075587;28;20215;-67
2020/12/01 12:49:00;;;;;;;42.72;25.85;;;;;;;;;;5075191;28;20845;-67
2020/12/01 12:51:27;;;;;;;49.13;26.77;;;;;;;;;;5057745;28;20207;-67
2020/12/01 12:53:54;;;;;;;43.47;27.13;;;;;;;;;;5060559;28;20194;-67
2020/12/01 12:56:21;;;;;;;48.45;27.58;;;;;;;;;;5074603;28;20307;-67
2020/12/01 12:58:48;;;;;;;48.40;27.60;;;;;;;;;;5074715;28;20200;-67
2020/12/01 13:01:16;;;;;;;46.03;25.90;;;;;;;;;;5074761;28;20618;-67
2020/12/01 13:03:43;;;;;;;53.90;31.23;;;;;;;;;;5074160;28;20838;-68
2020/12/01 13:06:09;;;;;;;52.22;28.88;;;;;;;;;;5066484;28;20275;-69
2020/12/01 13:08:37;;;;;;;54.88;28.45;;;;;;;;;;5070030;28;20572;-68
2020/12/01 13:11:04;;;;;;;48.92;26.88;;;;;;;;;;5074799;28;20198;-68
2020/12/01 13:13:30;;;;;;;47.70;26.42;;;;;;;;;;5073366;28;20574;-68
2020/12/01 13:15:57;;;;;;;53.53;27.52;;;;;;;;;;5075025;28;20238;-69
2020/12/01 13:18:24;;;;;;;51.75;27.38;;;;;;;;;;5075207;28;20204;-68
2020/12/01 13:20:51;;;;;;;47.80;25.33;;;;;;;;;;5075165;28;20607;-68
2020/12/01 13:23:17;;;;;;;50.65;27.45;;;;;;;;;;5074205;28;20200;-68
2020/12/01 13:25:44;;;;;;;48.40;27.85;;;;;;;;;;5075556;28;20200;-68
2020/12/01 13:28:11;;;;;;;52.03;27.35;;;;;;;;;;5074963;28;20203;-68
2020/12/01 13:30:37;;;;;;;55.10;27.48;;;;;;;;;;5074890;28;20241;-68
2020/12/01 13:33:04;;;;;;;48.97;27.83;;;;;;;;;;5074707;28;20191;-68
2020/12/01 13:35:33;;;;;;;52.33;26.75;;;;;;;;;;5074713;28;20265;-68
2020/12/01 13:38:00;;;;;;;45.45;25.42;;;;;;;;;;5075034;28;20200;-68
2020/12/01 13:40:26;;;;;;;45.03;26.88;;;;;;;;;;5074593;28;20651;-68
2020/12/01 13:42:53;;;;;;;46.08;25.17;;;;;;;;;;5075033;28;20200;-66
2020/12/01 13:45:21;;;;;;;50.15;25.83;;;;;;;;;;5074507;28;20223;-67
2020/12/01 13:47:48;;;;;;;50.22;29.13;;;;;;;;;;5073997;28;20219;-67
2020/12/01 13:50:17;;;;;;;51.08;28.50;;;;;;;;;;5074747;28;20203;-69
2020/12/01 13:52:45;;;;;;;47.85;26.63;;;;;;;;;;5073717;28;20172;-67
2020/12/01 13:55:12;;;;;;;52.22;28.13;;;;;;;;;;5074161;28;20212;-67
2020/12/01 13:57:39;;;;;;;50.50;27.88;;;;;;;;;;5074452;28;20230;-67
2020/12/01 14:00:07;;;;;;;48.47;26.92;;;;;;;;;;5074349;28;20626;-68
2020/12/01 14:02:36;;;;;;;49.22;26.65;;;;;;;;;;5074953;28;20188;-68
2020/12/01 14:05:03;;;;;;;47.92;26.85;;;;;;;;;;5074049;28;20203;-68
2020/12/01 14:07:30;;;;;;;47.10;26.25;;;;;;;;;;5074546;28;20200;-68
2020/12/01 14:09:56;;;;;;;44.38;24.02;;;;;;;;;;5075096;28;20206;-66
2020/12/01 14:12:23;;;;;;;51.35;24.75;;;;;;;;;;5074338;28;20651;-67
2020/12/01 14:14:50;;;;;;;50.65;28.77;;;;;;;;;;5074380;28;20191;-67
2020/12/01 14:17:16;;;;;;;51.13;27.27;;;;;;;;;;5074277;28;20299;-68
2020/12/01 14:19:43;;;;;;;47.88;26.60;;;;;;;;;;5073902;28;20195;-68
2020/12/01 14:22:13;;;;;;;49.58;26.58;;;;;;;;;;5073725;28;20219;-68
2020/12/01 14:24:39;;;;;;;47.60;25.45;;;;;;;;;;5073684;28;20200;-68
2020/12/01 14:27:06;;;;;;;44.60;24.80;;;;;;;;;;5073579;28;20240;-68
2020/12/01 14:29:33;;;;;;;49.72;24.23;;;;;;;;;;5073333;28;20327;-67
2020/12/01 14:31:59;;;;;;;43.90;25.13;;;;;;;;;;5073597;28;20203;-67
2020/12/01 14:34:28;;;;;;;49.55;26.88;;;;;;;;;;5073356;28;20199;-68
2020/12/01 14:36:55;;;;;;;44.38;24.98;;;;;;;;;;5073924;28;20675;-69
2020/12/01 14:39:23;;;;;;;43.75;24.63;;;;;;;;;;5073555;28;20196;-67
2020/12/01 14:42:01;;;;;;;55.58;25.23;;;;;;;;;;5073668;28;20210;-68
2020/12/01 14:44:28;;;;;;;47.55;25.60;;;;;;;;;;5074257;28;20200;-67
2020/12/01 14:47:19;;;;;;;45.88;25.40;;;;;;;;;;5073691;28;20204;-68
2020/12/01 14:49:49;;;;;;;44.58;23.73;;;;;;;;;;5073917;28;20173;-67
2020/12/01 14:52:27;;;;;;;46.72;22.80;;;;;;;;;;5073788;28;20191;-69
2020/12/01 14:55:13;;;;;;;45.47;24.35;;;;;;;;;;5072290;28;20230;-69
2020/12/01 14:58:02;;;;;;;41.92;23.52;;;;;;;;;;5073525;28;20580;-68
2020/12/01 15:00:55;;;;;;;40.08;24.13;;;;;;;;;;5073564;28;20199;-67
2020/12/01 15:03:30;;;;;;;44.47;24.33;;;;;;;;;;5075193;28;20198;-68
2020/12/01 15:06:03;;;;;;;40.90;22.58;;;;;;;;;;5077356;28;20198;-67
2020/12/01 15:08:42;;;;;;;42.03;24.50;;;;;;;;;;5077255;28;20203;-68
2020/12/01 15:11:13;;;;;;;43.20;26.15;;;;;;;;;;5075949;28;20571;-68
2020/12/01 15:13:41;;;;;;;45.72;24.00;;;;;;;;;;5077799;28;20192;-68
2020/12/01 15:16:09;;;;;;;41.53;23.08;;;;;;;;;;5077002;28;20218;-68
2020/12/01 15:18:39;;;;;;;49.47;24.83;;;;;;;;;;5076832;28;20245;-68